Time;durP1;ratioP1;P1;durP2;ratioP2;P2;SDS_P1;SDS_P2;PMS_P1;PMS_P2;Temp;Humidity;BMP_temperature;BMP_pressure;BME280_temperature;BME280_humidity;BME280_pressure;Samples;Min_cycle;Max_cycle;Signal;HPM_P1;HPM_P2
2022/04/01 00:00:15;;;;;;;4.70;2.50;;;7.30;42.90;;;;;;5070594;28;20193;-48
2022/04/01 00:02:44;;;;;;;3.80;2.20;;;7.30;41.90;;;;;;5067888;28;20199;-48
2022/04/01 00:05:11;;;;;;;2.97;1.80;;;7.30;41.40;;;;;;5064552;28;20265;-47
2022/04/01 00:07:40;;;;;;;2.83;1.90;;;7.20;41.30;;;;;;5067897;28;20569;-42
2022/04/01 00:10:09;;;;;;;3.00;2.63;;;7.20;41.10;;;;;;5065861;28;20883;-46
2022/04/01 00:12:40;;;;;;;5.07;2.90;;;7.20;39.90;;;;;;5060670;28;20194;-45
2022/04/01 00:15:08;;;;;;;4.40;2.83;;;7.20;39.30;;;;;;5065095;28;20241;-51
2022/04/01 00:17:35;;;;;;;6.57;2.70;;;7.20;39.20;;;;;;5065960;28;20221;-46
2022/04/01 00:20:02;;;;;;;4.87;2.90;;;7.20;39.10;;;;;;5063612;28;20202;-44
2022/04/01 00:22:30;;;;;;;3.63;2.30;;;7.20;38.70;;;;;;5058834;28;20199;-45
2022/04/01 00:24:59;;;;;;;2.33;2.10;;;7.20;38.70;;;;;;5066557;28;20196;-44
2022/04/01 00:27:26;;;;;;;4.63;2.43;;;7.20;38.80;;;;;;5069109;28;20199;-46
2022/04/01 00:29:54;;;;;;;3.33;2.07;;;7.20;38.50;;;;;;5066051;28;20578;-43
2022/04/01 00:32:22;;;;;;;3.17;2.10;;;7.20;38.70;;;;;;5067449;28;20201;-42
2022/04/01 00:34:51;;;;;;;4.90;2.80;;;7.20;38.50;;;;;;5065363;28;20285;-42
2022/04/01 00:37:18;;;;;;;4.90;2.33;;;7.20;38.40;;;;;;5054245;28;20214;-42
2022/04/01 00:39:45;;;;;;;4.03;2.27;;;7.20;38.40;;;;;;5057017;28;20290;-41
2022/04/01 00:42:14;;;;;;;4.23;2.13;;;7.20;38.50;;;;;;5070240;28;20200;-46
2022/04/01 00:44:42;;;;;;;9.83;2.50;;;7.20;38.30;;;;;;5053741;28;20188;-43
2022/04/01 00:47:11;;;;;;;4.77;2.13;;;7.20;38.80;;;;;;5059134;28;20236;-44
2022/04/01 00:49:40;;;;;;;4.20;2.23;;;7.20;37.70;;;;;;5064134;28;20446;-44
2022/04/01 00:52:09;;;;;;;2.67;2.13;;;7.20;38.00;;;;;;5069409;28;20195;-46
2022/04/01 00:54:37;;;;;;;3.17;2.20;;;7.10;38.20;;;;;;5069916;28;20199;-42
2022/04/01 00:57:05;;;;;;;2.53;2.17;;;7.10;38.30;;;;;;5068108;28;20208;-46
2022/04/01 00:59:34;;;;;;;3.27;1.90;;;7.20;38.00;;;;;;5067084;28;20434;-42
2022/04/01 01:02:01;;;;;;;3.80;2.10;;;7.20;38.10;;;;;;5066734;28;20194;-43
2022/04/01 01:04:28;;;;;;;4.10;2.07;;;7.10;38.20;;;;;;5065201;28;20308;-44
2022/04/01 01:06:58;;;;;;;4.27;2.17;;;7.10;38.10;;;;;;5064032;28;20301;-41
2022/04/01 01:09:26;;;;;;;2.50;2.07;;;7.10;37.50;;;;;;5066604;28;20745;-44
2022/04/01 01:11:55;;;;;;;4.27;2.10;;;7.10;37.00;;;;;;5066676;28;20216;-43
2022/04/01 01:14:28;;;;;;;2.77;2.00;;;7.00;36.40;;;;;;5069643;28;20233;-45
2022/04/01 01:16:58;;;;;;;4.07;2.30;;;7.00;36.30;;;;;;5065390;28;20189;-43
2022/04/01 01:19:26;;;;;;;2.20;2.00;;;7.00;36.30;;;;;;5064646;28;20282;-43
2022/04/01 01:21:55;;;;;;;5.20;2.23;;;6.90;36.50;;;;;;5062474;28;20196;-46
2022/04/01 01:24:31;;;;;;;2.83;1.90;;;6.90;36.00;;;;;;5060942;28;20267;-43
2022/04/01 01:27:00;;;;;;;4.97;2.10;;;6.90;35.90;;;;;;5063421;28;20209;-43
2022/04/01 01:29:29;;;;;;;5.30;2.33;;;6.90;36.10;;;;;;5058755;28;20205;-42
2022/04/01 01:31:58;;;;;;;3.47;1.90;;;6.80;36.20;;;;;;5081984;28;20206;-45
2022/04/01 01:34:27;;;;;;;2.70;2.00;;;6.80;36.30;;;;;;5060799;28;20198;-49
2022/04/01 01:36:54;;;;;;;5.67;1.80;;;6.80;36.50;;;;;;5063318;28;20679;-45
2022/04/01 01:39:22;;;;;;;2.90;2.13;;;6.80;36.10;;;;;;5056937;28;20213;-44
2022/04/01 01:41:53;;;;;;;3.63;1.87;;;6.80;36.00;;;;;;5069432;28;20210;-44
2022/04/01 01:44:22;;;;;;;2.60;1.80;;;6.80;36.10;;;;;;5068043;28;20235;-42
2022/04/01 01:46:51;;;;;;;3.90;1.80;;;6.70;36.30;;;;;;5057339;28;20218;-49
2022/04/01 01:49:20;;;;;;;2.17;1.60;;;6.80;36.60;;;;;;5052933;28;20197;-43
2022/04/01 01:54:44;;;;;;;2.77;1.50;;;6.80;36.90;;;;;;5071858;28;20281;-42
2022/04/01 01:57:15;;;;;;;1.73;1.47;;;6.80;37.00;;;;;;5071474;28;20553;-46
2022/04/01 01:59:43;;;;;;;3.37;1.47;;;6.90;37.20;;;;;;5071024;28;20212;-44
2022/04/01 02:02:10;;;;;;;2.67;1.60;;;6.80;36.80;;;;;;5067952;28;20209;-45
2022/04/01 02:04:40;;;;;;;2.60;1.60;;;6.80;36.10;;;;;;5067915;28;20248;-44
2022/04/01 02:07:08;;;;;;;3.37;2.47;;;6.80;36.30;;;;;;5066466;28;20788;-42
2022/04/01 02:09:35;;;;;;;2.20;2.00;;;6.80;36.60;;;;;;5071465;28;20250;-46
2022/04/01 02:12:03;;;;;;;3.37;1.40;;;6.70;36.80;;;;;;5063045;28;20285;-47
2022/04/01 02:14:34;;;;;;;2.97;1.63;;;6.70;36.90;;;;;;5070476;28;20324;-45
2022/04/01 02:17:03;;;;;;;1.83;1.40;;;6.70;36.90;;;;;;5064296;28;20562;-46
2022/04/01 02:19:31;;;;;;;1.97;1.70;;;6.70;37.00;;;;;;5064972;28;20198;-44
2022/04/01 02:21:59;;;;;;;1.50;1.40;;;6.70;37.00;;;;;;5071567;28;20243;-45
2022/04/01 02:24:27;;;;;;;3.17;1.50;;;6.70;37.00;;;;;;5069481;28;20199;-46
2022/04/01 02:26:55;;;;;;;2.23;1.73;;;6.70;37.00;;;;;;5072250;28;20588;-45
2022/04/01 02:29:24;;;;;;;2.40;1.70;;;6.70;37.10;;;;;;5069723;28;20242;-42
2022/04/01 02:32:12;;;;;;;1.83;1.37;;;6.70;37.00;;;;;;5072165;28;20675;-43
2022/04/01 02:35:11;;;;;;;1.73;1.60;;;6.60;36.50;;;;;;5070277;28;20219;-47
2022/04/01 02:37:41;;;;;;;1.77;1.50;;;6.60;36.50;;;;;;5069055;28;20263;-46
2022/04/01 02:40:11;;;;;;;1.20;1.10;;;6.60;36.70;;;;;;5070253;28;20202;-41
2022/04/01 02:42:39;;;;;;;1.77;1.50;;;6.70;37.10;;;;;;5069226;28;20213;-46
2022/04/01 02:45:09;;;;;;;3.00;1.70;;;6.70;37.50;;;;;;5070227;28;20193;-46
2022/04/01 02:47:38;;;;;;;1.57;1.40;;;6.70;37.70;;;;;;5067621;28;20278;-42
2022/04/01 02:50:07;;;;;;;3.03;1.60;;;6.70;37.70;;;;;;5063462;28;20217;-40
2022/04/01 02:52:34;;;;;;;2.50;1.30;;;6.70;36.70;;;;;;5058644;28;20218;-48
2022/04/01 02:55:03;;;;;;;1.73;1.20;;;6.60;36.30;;;;;;5064024;28;20233;-46
2022/04/01 02:57:31;;;;;;;2.40;1.10;;;6.60;36.40;;;;;;5057968;28;20203;-51
2022/04/01 02:59:58;;;;;;;2.77;1.60;;;6.60;36.70;;;;;;5068043;28;20275;-48
2022/04/01 03:02:25;;;;;;;3.77;1.60;;;6.60;37.00;;;;;;5096329;28;20202;-49
2022/04/01 03:04:54;;;;;;;2.47;1.03;;;6.60;37.30;;;;;;5060082;28;20233;-47
2022/04/01 03:07:21;;;;;;;2.00;1.33;;;6.60;37.50;;;;;;5070826;28;20732;-48
2022/04/01 03:09:49;;;;;;;4.00;1.70;;;6.70;38.20;;;;;;5065085;28;20232;-49
2022/04/01 03:12:20;;;;;;;3.13;1.77;;;6.60;39.30;;;;;;5084977;28;20275;-50
2022/04/01 03:14:50;;;;;;;3.30;2.03;;;6.60;39.80;;;;;;5061220;28;20257;-49
2022/04/01 03:17:30;;;;;;;2.00;1.70;;;6.60;40.00;;;;;;5064294;28;20197;-49
2022/04/01 03:19:59;;;;;;;2.33;1.50;;;6.60;40.00;;;;;;5062374;28;20198;-44
2022/04/01 03:22:26;;;;;;;3.83;2.20;;;6.60;40.10;;;;;;5061394;28;20197;-42
2022/04/01 03:24:54;;;;;;;4.23;1.63;;;6.60;40.20;;;;;;5057507;28;20205;-47
2022/04/01 03:27:21;;;;;;;1.40;1.30;;;6.60;40.00;;;;;;5065498;28;20589;-46
2022/04/01 03:29:48;;;;;;;2.90;1.77;;;6.60;39.90;;;;;;5075279;28;20197;-43
2022/04/01 03:32:15;;;;;;;2.07;1.30;;;6.50;39.80;;;;;;5064968;28;20248;-43
2022/04/01 03:34:44;;;;;;;1.87;1.30;;;6.50;39.80;;;;;;5055707;28;20229;-42
2022/04/01 03:37:12;;;;;;;1.57;1.20;;;6.50;39.90;;;;;;5062284;28;20704;-44
2022/04/01 03:39:39;;;;;;;2.57;1.70;;;6.50;39.90;;;;;;5097045;27;20209;-42
2022/04/01 03:42:08;;;;;;;2.80;1.50;;;6.50;39.90;;;;;;5062120;28;20207;-44
2022/04/01 03:44:41;;;;;;;3.17;1.43;;;6.50;40.30;;;;;;5056740;28;20213;-42
2022/04/01 03:47:53;;;;;;;3.27;1.77;;;6.50;39.70;;;;;;5049480;28;20221;-42
2022/04/01 03:50:29;;;;;;;3.17;1.70;;;6.50;39.60;;;;;;5056065;28;20194;-45
2022/04/01 03:53:04;;;;;;;3.23;1.23;;;6.40;39.30;;;;;;5060727;28;20206;-42
2022/04/01 03:55:33;;;;;;;4.67;1.47;;;6.40;39.10;;;;;;5067911;28;20206;-44
2022/04/01 03:58:29;;;;;;;1.80;1.60;;;6.40;39.10;;;;;;5069460;28;20210;-42
2022/04/01 04:01:06;;;;;;;3.27;1.57;;;6.30;38.90;;;;;;5070273;28;20201;-47
2022/04/01 04:03:36;;;;;;;2.23;1.23;;;6.30;39.00;;;;;;5066355;28;20206;-46
2022/04/01 04:06:09;;;;;;;1.60;1.37;;;6.30;39.10;;;;;;5064181;28;20217;-43
2022/04/01 04:08:39;;;;;;;1.50;1.20;;;6.30;39.30;;;;;;5061359;28;20247;-43
2022/04/01 04:11:09;;;;;;;3.67;1.30;;;6.30;39.30;;;;;;5067447;28;20197;-41
2022/04/01 04:13:56;;;;;;;1.83;1.30;;;6.30;39.30;;;;;;5066006;28;20208;-41
2022/04/01 04:16:29;;;;;;;3.57;1.30;;;6.30;39.30;;;;;;5067383;28;20197;-42
2022/04/01 04:19:02;;;;;;;1.57;1.30;;;6.30;39.20;;;;;;5059225;28;20742;-43
2022/04/01 04:21:40;;;;;;;1.33;1.20;;;6.30;39.10;;;;;;5068641;28;20212;-42
2022/04/01 04:24:20;;;;;;;4.57;1.40;;;6.30;38.50;;;;;;5065909;28;20212;-41
2022/04/01 04:26:51;;;;;;;1.20;1.10;;;6.30;38.40;;;;;;5063732;28;20245;-43
2022/04/01 04:29:20;;;;;;;1.30;1.20;;;6.30;38.40;;;;;;5068786;28;20554;-41
2022/04/01 04:32:12;;;;;;;2.33;1.07;;;6.30;38.70;;;;;;5066250;28;20233;-43
2022/04/01 04:34:45;;;;;;;1.07;0.97;;;6.20;38.60;;;;;;5059333;28;20214;-41
2022/04/01 04:37:15;;;;;;;1.37;1.27;;;6.30;38.70;;;;;;5064435;28;20201;-47
2022/04/01 04:39:50;;;;;;;1.40;1.10;;;6.30;38.70;;;;;;5064940;28;20216;-41
2022/04/01 04:42:19;;;;;;;1.30;1.20;;;6.30;38.60;;;;;;5062954;28;20303;-42
2022/04/01 04:44:47;;;;;;;1.97;1.20;;;6.30;38.50;;;;;;5065716;28;20232;-43
2022/04/01 04:47:25;;;;;;;1.33;1.03;;;6.30;38.40;;;;;;5063010;28;20303;-41
2022/04/01 04:49:56;;;;;;;1.40;1.10;;;6.30;38.20;;;;;;5067493;28;20564;-43
2022/04/01 04:52:30;;;;;;;1.20;1.10;;;6.40;38.20;;;;;;5068705;28;20209;-42
2022/04/01 04:55:03;;;;;;;2.10;1.17;;;6.40;38.30;;;;;;5067738;28;20209;-42
2022/04/01 04:57:45;;;;;;;1.97;1.40;;;6.40;38.30;;;;;;5053583;28;20284;-43
2022/04/01 05:00:19;;;;;;;2.57;1.40;;;6.40;38.30;;;;;;5066426;28;20198;-43
2022/04/01 05:03:21;;;;;;;1.47;1.20;;;6.40;38.10;;;;;;5066613;28;20674;-46
2022/04/01 05:05:51;;;;;;;6.67;1.30;;;6.50;38.00;;;;;;5058126;28;20215;-44
2022/04/01 05:08:35;;;;;;;1.20;1.10;;;6.50;38.00;;;;;;5068812;28;20216;-41
2022/04/01 05:11:45;;;;;;;3.23;1.53;;;6.40;38.10;;;;;;5065197;28;20698;-44
2022/04/01 05:14:32;;;;;;;5.07;1.37;;;6.50;38.20;;;;;;5074145;28;20313;-45
2022/04/01 05:17:04;;;;;;;1.90;1.23;;;6.50;38.30;;;;;;5078925;28;20197;-43
2022/04/01 05:19:36;;;;;;;2.23;1.60;;;6.50;38.20;;;;;;5081196;28;20207;-44
2022/04/01 05:22:06;;;;;;;3.03;1.90;;;6.50;38.20;;;;;;5067325;28;20635;-50
2022/04/01 05:24:51;;;;;;;1.93;1.50;;;6.60;38.30;;;;;;5055909;28;20249;-47
2022/04/01 05:27:24;;;;;;;3.53;1.07;;;6.60;38.30;;;;;;5063271;28;20313;-46
2022/04/01 05:30:13;;;;;;;3.43;1.30;;;6.60;38.50;;;;;;5069536;28;20695;-48
2022/04/01 05:32:59;;;;;;;3.90;1.17;;;6.60;38.40;;;;;;5065625;28;20209;-43
2022/04/01 05:35:29;;;;;;;1.10;1.00;;;6.60;38.50;;;;;;5093212;28;20211;-42
2022/04/01 05:37:58;;;;;;;3.33;1.10;;;6.60;38.60;;;;;;5071446;28;20190;-42
2022/04/01 05:40:25;;;;;;;1.83;1.27;;;6.60;38.50;;;;;;5073265;28;20221;-43
2022/04/01 05:42:56;;;;;;;1.23;1.10;;;6.60;38.30;;;;;;5071424;28;20342;-42
2022/04/01 05:45:55;;;;;;;2.77;1.17;;;6.70;38.20;;;;;;5058865;28;20215;-45
2022/04/01 05:48:23;;;;;;;4.70;1.60;;;6.60;37.70;;;;;;5070379;28;20228;-45
2022/04/01 05:50:51;;;;;;;3.93;1.27;;;6.60;37.50;;;;;;5071755;28;20548;-42
2022/04/01 05:53:21;;;;;;;5.33;1.40;;;6.60;37.70;;;;;;5071631;28;20205;-42
2022/04/01 05:55:52;;;;;;;1.27;1.17;;;6.70;38.10;;;;;;5064586;28;20200;-44
2022/04/01 05:58:20;;;;;;;4.80;1.60;;;6.70;38.20;;;;;;5071504;28;20209;-45
2022/04/01 06:00:57;;;;;;;3.87;1.80;;;6.70;38.30;;;;;;5067437;28;20190;-43
2022/04/01 06:03:45;;;;;;;3.60;2.03;;;6.80;38.30;;;;;;5062889;28;20197;-41
2022/04/01 06:06:20;;;;;;;2.57;1.60;;;6.80;38.40;;;;;;5067579;28;20208;-45
2022/04/01 06:08:59;;;;;;;2.07;1.50;;;6.80;38.50;;;;;;5070493;28;20832;-44
2022/04/01 06:12:13;;;;;;;4.80;2.00;;;6.90;38.50;;;;;;5049364;28;20598;-44
2022/04/01 06:15:07;;;;;;;4.07;1.90;;;6.90;38.60;;;;;;5049346;28;20254;-43
2022/04/01 06:18:05;;;;;;;3.70;1.43;;;6.90;38.10;;;;;;5053664;28;20720;-46
2022/04/01 06:20:35;;;;;;;1.13;1.00;;;6.90;37.60;;;;;;5070250;28;20205;-43
2022/04/01 06:23:06;;;;;;;1.30;1.17;;;6.90;37.20;;;;;;5069723;28;20581;-49
2022/04/01 06:25:41;;;;;;;1.90;1.40;;;6.90;37.40;;;;;;5058267;28;20272;-52
2022/04/01 06:28:24;;;;;;;1.27;1.10;;;6.90;37.50;;;;;;5059103;28;20205;-48
2022/04/01 06:31:01;;;;;;;2.17;1.27;;;7.00;37.90;;;;;;5069823;28;20218;-48
2022/04/01 06:33:36;;;;;;;2.80;1.20;;;7.00;38.00;;;;;;5069029;28;20498;-49
2022/04/01 06:36:41;;;;;;;1.67;1.30;;;7.00;37.90;;;;;;5013539;28;20326;-50
2022/04/01 06:39:11;;;;;;;1.87;1.20;;;7.10;37.80;;;;;;5056109;28;20235;-50
2022/04/01 06:41:46;;;;;;;1.60;1.27;;;7.20;38.00;;;;;;5061186;28;20199;-44
2022/04/01 06:44:43;;;;;;;1.43;1.00;;;7.20;38.30;;;;;;5051346;28;20205;-47
2022/04/01 06:47:20;;;;;;;4.50;1.10;;;7.20;38.20;;;;;;5059501;28;20707;-44
2022/04/01 06:49:48;;;;;;;3.93;1.30;;;7.20;38.20;;;;;;5069099;28;20664;-42
2022/04/01 06:52:50;;;;;;;2.30;1.30;;;7.30;38.60;;;;;;5038565;28;20212;-43
2022/04/01 06:55:38;;;;;;;1.50;1.40;;;7.30;38.80;;;;;;5069821;28;20342;-43
2022/04/01 06:58:25;;;;;;;3.63;1.10;;;7.30;38.70;;;;;;5070127;28;20205;-43
2022/04/01 07:01:00;;;;;;;4.00;1.33;;;7.40;39.00;;;;;;5065066;28;20200;-43
2022/04/01 07:03:28;;;;;;;1.20;1.10;;;7.30;38.90;;;;;;5069724;28;20656;-44
2022/04/01 07:05:56;;;;;;;6.10;1.37;;;7.40;38.70;;;;;;5069609;28;20209;-42
2022/04/01 07:08:23;;;;;;;2.77;1.20;;;7.40;38.60;;;;;;5064767;28;20218;-44
2022/04/01 07:10:50;;;;;;;2.23;1.30;;;7.40;38.20;;;;;;5071157;28;20235;-42
2022/04/01 07:13:18;;;;;;;2.63;1.53;;;7.40;37.70;;;;;;5067813;28;20732;-43
2022/04/01 07:15:47;;;;;;;3.33;1.33;;;7.50;37.90;;;;;;5071128;28;20233;-42
2022/04/01 07:18:15;;;;;;;2.53;1.10;;;7.60;38.00;;;;;;5069208;28;20282;-50
2022/04/01 07:20:43;;;;;;;3.43;1.33;;;7.70;37.70;;;;;;5071032;28;20428;-41
2022/04/01 07:23:11;;;;;;;1.97;1.30;;;7.60;37.00;;;;;;5066270;28;20182;-44
2022/04/01 07:25:38;;;;;;;1.60;1.13;;;7.60;37.20;;;;;;5066805;28;20193;-45
2022/04/01 07:28:06;;;;;;;3.70;1.80;;;7.70;37.60;;;;;;5070730;28;20221;-42
2022/04/01 07:30:33;;;;;;;1.43;1.30;;;7.70;37.90;;;;;;5071135;28;20202;-42
2022/04/01 07:33:00;;;;;;;4.00;1.50;;;7.80;37.70;;;;;;5060102;28;20248;-42
2022/04/01 07:35:29;;;;;;;4.40;1.70;;;7.80;37.20;;;;;;5070532;28;20294;-41
2022/04/01 07:37:58;;;;;;;4.43;1.53;;;7.90;37.10;;;;;;5069911;28;20206;-44
2022/04/01 07:40:26;;;;;;;4.83;2.00;;;7.90;36.50;;;;;;5070343;28;20205;-43
2022/04/01 07:42:54;;;;;;;6.50;1.70;;;7.90;36.40;;;;;;5069955;28;20193;-43
2022/04/01 07:45:22;;;;;;;3.97;1.67;;;8.00;36.80;;;;;;5069924;28;20279;-43
2022/04/01 07:47:51;;;;;;;2.10;1.63;;;8.10;36.90;;;;;;5068422;28;20469;-46
2022/04/01 07:50:20;;;;;;;3.73;1.53;;;8.10;36.40;;;;;;5068009;28;20200;-44
2022/04/01 07:52:47;;;;;;;2.37;1.40;;;8.20;35.30;;;;;;5070361;28;20203;-43
2022/04/01 07:55:18;;;;;;;3.27;1.40;;;8.20;34.80;;;;;;5068707;28;20200;-42
2022/04/01 07:57:47;;;;;;;2.47;1.40;;;8.20;34.50;;;;;;5062096;28;20195;-42
2022/04/01 08:00:16;;;;;;;6.40;1.67;;;8.30;34.60;;;;;;5066233;28;20208;-46
2022/04/01 08:02:44;;;;;;;1.93;1.40;;;8.30;34.30;;;;;;5068532;28;20200;-44
2022/04/01 08:05:11;;;;;;;4.90;1.90;;;8.20;34.30;;;;;;5068795;28;20277;-41
2022/04/01 08:07:38;;;;;;;3.63;1.93;;;8.20;34.20;;;;;;5067032;28;20234;-44
2022/04/01 08:10:07;;;;;;;4.20;1.50;;;8.30;34.50;;;;;;5069623;28;20201;-47
2022/04/01 08:12:36;;;;;;;1.37;1.27;;;8.40;34.50;;;;;;5060769;28;20233;-43
2022/04/01 08:15:12;;;;;;;17.27;2.70;;;8.40;34.70;;;;;;5066675;28;20303;-49
2022/04/01 08:17:39;;;;;;;3.00;1.60;;;8.60;34.60;;;;;;5064920;28;20295;-46
2022/04/01 08:20:07;;;;;;;2.30;1.20;;;8.70;34.10;;;;;;5067631;28;20247;-45
2022/04/01 08:22:34;;;;;;;2.17;1.10;;;8.70;34.10;;;;;;5065593;28;20207;-41
2022/04/01 08:25:01;;;;;;;3.63;1.53;;;8.80;34.00;;;;;;5061088;28;20244;-45
2022/04/01 08:27:28;;;;;;;4.70;1.20;;;8.80;33.40;;;;;;5064711;28;20491;-49
2022/04/01 08:29:59;;;;;;;3.87;1.20;;;8.80;33.20;;;;;;5064439;28;20658;-44
2022/04/01 08:32:27;;;;;;;5.70;1.17;;;8.90;32.80;;;;;;5064102;28;20204;-43
2022/04/01 08:34:54;;;;;;;5.17;1.40;;;8.90;33.30;;;;;;5062693;28;20194;-43
2022/04/01 08:37:21;;;;;;;3.53;1.30;;;8.90;33.40;;;;;;5059946;28;20205;-45
2022/04/01 08:39:48;;;;;;;3.70;1.50;;;9.00;33.60;;;;;;5055440;28;20208;-43
2022/04/01 08:42:16;;;;;;;1.63;1.20;;;9.10;33.00;;;;;;5068325;28;20197;-42
2022/04/01 08:44:46;;;;;;;2.43;1.30;;;9.10;32.80;;;;;;5055069;28;20196;-47
2022/04/01 08:47:15;;;;;;;4.17;1.50;;;9.30;32.80;;;;;;5066346;28;20201;-43
2022/04/01 08:49:42;;;;;;;1.70;1.30;;;9.30;32.20;;;;;;5064989;28;20629;-43
2022/04/01 08:52:09;;;;;;;2.73;1.90;;;9.30;32.40;;;;;;5068862;28;20611;-46
2022/04/01 08:54:36;;;;;;;4.67;3.03;;;9.40;32.40;;;;;;5069160;28;20716;-46
2022/04/01 08:57:05;;;;;;;10.23;2.17;;;9.50;32.40;;;;;;5068181;28;20201;-45
2022/04/01 08:59:33;;;;;;;8.90;2.03;;;9.60;32.10;;;;;;5066719;28;20205;-50
2022/04/01 09:02:04;;;;;;;2.73;1.50;;;9.60;30.90;;;;;;5067521;28;20220;-48
2022/04/01 09:04:34;;;;;;;3.47;1.70;;;9.60;30.50;;;;;;5067955;28;20255;-45
2022/04/01 09:07:11;;;;;;;1.70;1.60;;;9.60;31.10;;;;;;5066096;28;20185;-46
2022/04/01 09:09:38;;;;;;;2.40;2.10;;;9.70;31.50;;;;;;5068751;28;20729;-46
2022/04/01 09:12:12;;;;;;;1.80;1.60;;;9.70;31.30;;;;;;5069671;28;20208;-48
2022/04/01 09:14:41;;;;;;;1.20;1.10;;;9.70;31.40;;;;;;5056648;28;20315;-45
2022/04/01 09:17:11;;;;;;;3.47;1.43;;;9.70;31.50;;;;;;5067257;28;20228;-41
2022/04/01 09:19:40;;;;;;;2.77;1.20;;;9.70;31.30;;;;;;5064342;28;20224;-48
2022/04/01 09:22:21;;;;;;;0.97;0.97;;;9.80;31.30;;;;;;5069046;28;20251;-48
2022/04/01 09:25:02;;;;;;;3.70;0.80;;;9.80;30.90;;;;;;5062533;28;20919;-49
2022/04/01 09:27:54;;;;;;;0.77;0.77;;;9.80;31.10;;;;;;5069207;28;20205;-48
2022/04/01 09:30:23;;;;;;;1.73;1.00;;;9.90;30.70;;;;;;5044728;28;20214;-48
2022/04/01 09:32:53;;;;;;;3.00;1.33;;;10.00;29.90;;;;;;5063516;28;20194;-47
2022/04/01 09:35:23;;;;;;;1.87;1.30;;;10.00;29.60;;;;;;5062651;28;20198;-44
2022/04/01 09:37:51;;;;;;;4.37;1.10;;;10.20;29.80;;;;;;5062155;28;20205;-50
2022/04/01 09:40:22;;;;;;;2.00;1.00;;;10.30;29.50;;;;;;5068656;28;20197;-48
2022/04/01 09:42:50;;;;;;;1.63;0.77;;;10.30;29.40;;;;;;5061696;28;20200;-51
2022/04/01 09:45:19;;;;;;;4.47;0.93;;;10.40;29.50;;;;;;5065759;28;20215;-46
2022/04/01 09:47:57;;;;;;;1.43;0.73;;;10.50;29.70;;;;;;5060101;28;20218;-49
2022/04/01 09:50:29;;;;;;;4.37;0.97;;;10.60;29.70;;;;;;5068168;28;20295;-47
2022/04/01 09:53:07;;;;;;;2.33;0.90;;;10.80;29.90;;;;;;5068608;28;20263;-48
2022/04/01 09:55:36;;;;;;;2.37;1.43;;;10.90;29.50;;;;;;5067846;28;20207;-46
2022/04/01 09:58:04;;;;;;;2.13;1.07;;;11.00;29.30;;;;;;5068643;28;20248;-43
2022/04/01 10:00:32;;;;;;;0.90;0.80;;;11.00;29.00;;;;;;5067349;28;20605;-44
2022/04/01 10:03:00;;;;;;;2.43;0.70;;;11.00;29.10;;;;;;5067267;28;20667;-44
2022/04/01 10:05:28;;;;;;;3.30;1.00;;;11.10;29.30;;;;;;5066891;28;20270;-45
2022/04/01 10:07:57;;;;;;;2.20;1.00;;;11.30;29.20;;;;;;5065238;28;20212;-43
2022/04/01 10:10:25;;;;;;;1.67;0.87;;;11.40;29.00;;;;;;5067048;28;20201;-42
2022/04/01 10:12:57;;;;;;;2.40;0.87;;;11.50;28.70;;;;;;5069613;28;20205;-42
2022/04/01 10:15:28;;;;;;;1.00;0.90;;;11.60;28.60;;;;;;5069092;28;20234;-45
2022/04/01 10:17:57;;;;;;;3.30;0.87;;;11.60;28.40;;;;;;5064798;28;20718;-43
2022/04/01 10:20:33;;;;;;;1.10;0.93;;;11.70;28.60;;;;;;5071194;28;20312;-45
2022/04/01 10:23:03;;;;;;;2.70;1.23;;;11.70;28.20;;;;;;5071067;28;20185;-43
2022/04/01 10:25:33;;;;;;;5.20;1.20;;;11.70;28.20;;;;;;5072213;28;20193;-44
2022/04/01 10:28:02;;;;;;;1.63;0.80;;;11.80;28.60;;;;;;5068974;28;20211;-43
2022/04/01 10:30:31;;;;;;;2.57;0.80;;;11.80;29.00;;;;;;5071431;28;20208;-42
2022/04/01 10:32:59;;;;;;;2.20;0.90;;;11.90;29.60;;;;;;5069893;28;20197;-42
2022/04/01 10:35:28;;;;;;;4.00;0.83;;;12.00;30.00;;;;;;5071268;28;20195;-45
2022/04/01 10:38:15;;;;;;;7.00;0.90;;;12.10;30.20;;;;;;5071186;28;20203;-43
2022/04/01 10:40:45;;;;;;;5.37;0.80;;;12.20;30.20;;;;;;5071114;28;20217;-46
2022/04/01 10:43:15;;;;;;;9.17;1.17;;;12.30;30.60;;;;;;5071479;28;20284;-45
2022/04/01 10:45:56;;;;;;;4.40;0.90;;;12.30;31.00;;;;;;5070755;28;20738;-42
2022/04/01 10:54:00;;;;;;;7.13;1.33;;;12.30;31.10;;;;;;5071540;28;20727;-44
2022/04/01 10:56:29;;;;;;;13.47;1.37;;;12.40;31.30;;;;;;5061171;28;20194;-42
2022/04/01 10:59:11;;;;;;;10.07;1.20;;;12.30;31.10;;;;;;5066562;28;20212;-42
2022/04/01 11:01:41;;;;;;;4.97;1.20;;;12.20;31.10;;;;;;5069390;28;20266;-47
2022/04/01 11:04:28;;;;;;;5.90;1.20;;;12.10;31.10;;;;;;5069543;28;20196;-43
2022/04/01 11:06:57;;;;;;;7.67;1.10;;;12.00;30.90;;;;;;5070716;28;20196;-43
2022/04/01 11:09:54;;;;;;;4.33;1.00;;;11.90;30.90;;;;;;5069396;28;20559;-41
2022/04/01 11:12:41;;;;;;;2.77;0.70;;;11.80;30.70;;;;;;5022504;28;20615;-44
2022/04/01 11:15:27;;;;;;;3.40;1.03;;;11.80;30.70;;;;;;5063742;28;20243;-46
2022/04/01 11:18:15;;;;;;;1.10;0.70;;;11.80;30.50;;;;;;5060642;28;20671;-46
2022/04/01 11:20:56;;;;;;;7.53;0.93;;;11.90;30.50;;;;;;5059290;28;20216;-48
2022/04/01 11:23:23;;;;;;;18.77;1.40;;;11.90;30.40;;;;;;5066446;28;20271;-45
2022/04/01 11:25:59;;;;;;;9.63;1.27;;;12.10;30.40;;;;;;5071513;28;20200;-45
2022/04/01 11:28:31;;;;;;;4.47;0.90;;;12.10;30.00;;;;;;5062781;28;20193;-47
2022/04/01 11:31:11;;;;;;;0.93;0.60;;;12.20;30.00;;;;;;5068909;28;20255;-45
2022/04/01 11:33:39;;;;;;;3.90;0.87;;;12.20;30.00;;;;;;5068234;28;20726;-46
2022/04/01 11:36:07;;;;;;;9.37;1.20;;;12.20;30.00;;;;;;5064902;28;20197;-46
2022/04/01 11:38:35;;;;;;;3.43;0.90;;;12.10;30.00;;;;;;5064263;28;20201;-45
2022/04/01 11:41:04;;;;;;;4.60;0.90;;;12.00;30.50;;;;;;5059847;28;20196;-43
2022/04/01 11:43:34;;;;;;;9.50;1.30;;;12.00;31.10;;;;;;5060630;28;20211;-42
2022/04/01 11:46:05;;;;;;;1.23;0.80;;;12.10;31.00;;;;;;5063797;28;20227;-45
2022/04/01 11:48:34;;;;;;;9.03;1.43;;;12.10;30.60;;;;;;5061084;28;20197;-47
2022/04/01 11:51:04;;;;;;;5.57;0.90;;;12.10;30.80;;;;;;5070268;28;20203;-47
2022/04/01 11:53:35;;;;;;;4.93;1.00;;;11.90;30.90;;;;;;5069445;28;20205;-42
2022/04/01 11:56:05;;;;;;;10.77;1.03;;;11.90;31.00;;;;;;5069651;28;20280;-48
2022/04/01 11:58:36;;;;;;;12.20;1.50;;;11.90;31.20;;;;;;5067215;28;20194;-43
2022/04/01 12:01:03;;;;;;;4.10;0.93;;;12.00;31.50;;;;;;5058112;28;20189;-45
2022/04/01 12:03:30;;;;;;;8.80;0.97;;;11.90;31.50;;;;;;5068552;28;20285;-44
2022/04/01 12:08:41;;;;;;;12.20;1.20;;;11.90;31.90;;;;;;5069929;28;20201;-49
2022/04/01 12:08:46;;;;;;;6.90;1.20;;;11.90;31.80;;;;;;5066508;28;20213;-42
2022/04/01 12:11:15;;;;;;;10.33;1.23;;;11.90;31.50;;;;;;5068849;28;20184;-44
2022/04/01 12:13:49;;;;;;;13.80;1.80;;;11.80;31.50;;;;;;5064007;28;20191;-43
2022/04/01 12:16:18;;;;;;;8.23;1.20;;;11.90;31.90;;;;;;5065636;28;20591;-44
2022/04/01 12:18:47;;;;;;;6.90;1.27;;;11.80;32.00;;;;;;5066597;28;20195;-45
2022/04/01 12:21:18;;;;;;;9.77;1.20;;;11.80;32.30;;;;;;5069201;28;20702;-47
2022/04/01 12:23:48;;;;;;;3.03;0.90;;;11.80;32.20;;;;;;5056157;28;20204;-44
2022/04/01 12:26:18;;;;;;;3.40;0.93;;;11.70;32.30;;;;;;5059579;28;20207;-45
2022/04/01 12:28:46;;;;;;;9.73;1.40;;;11.60;32.30;;;;;;5063009;28;20557;-43
2022/04/01 12:31:18;;;;;;;8.00;1.40;;;11.60;32.20;;;;;;5069590;28;20200;-45
2022/04/01 12:33:49;;;;;;;5.10;1.00;;;11.60;32.00;;;;;;5055518;28;20277;-43
2022/04/01 12:36:18;;;;;;;4.40;1.00;;;11.50;31.80;;;;;;5062392;28;20208;-44
2022/04/01 12:39:01;;;;;;;4.20;1.20;;;11.40;32.00;;;;;;5063258;28;20216;-48
2022/04/01 12:41:30;;;;;;;16.63;1.23;;;11.30;32.30;;;;;;5069309;28;20653;-46
2022/04/01 12:44:00;;;;;;;6.50;1.40;;;11.20;32.50;;;;;;5065671;28;20192;-45
2022/04/01 12:46:31;;;;;;;6.73;1.30;;;11.10;32.30;;;;;;5057385;28;20252;-43
2022/04/01 12:48:59;;;;;;;15.63;1.97;;;11.10;32.40;;;;;;5067728;28;20337;-47
2022/04/01 12:51:28;;;;;;;8.40;1.13;;;11.00;32.60;;;;;;5069134;28;20222;-49
2022/04/01 12:53:58;;;;;;;13.10;1.73;;;11.10;32.80;;;;;;5056065;28;20205;-52
2022/04/01 12:56:28;;;;;;;6.40;1.27;;;11.30;33.00;;;;;;5069682;28;20679;-50
2022/04/01 12:58:58;;;;;;;3.33;1.20;;;11.90;32.50;;;;;;5068563;28;20197;-49
2022/04/01 13:01:26;;;;;;;5.97;1.30;;;12.80;31.50;;;;;;5062166;28;20193;-49
2022/04/01 13:03:55;;;;;;;4.23;1.00;;;13.40;30.70;;;;;;5062938;28;20190;-44
2022/04/01 13:06:25;;;;;;;11.87;1.50;;;13.20;30.70;;;;;;5058891;28;20218;-48
2022/04/01 13:09:07;;;;;;;14.20;1.50;;;12.90;31.20;;;;;;5062625;28;20203;-43
2022/04/01 13:11:39;;;;;;;6.83;1.20;;;12.60;31.50;;;;;;5064974;28;20679;-41
2022/04/01 13:14:18;;;;;;;8.93;1.30;;;12.20;31.70;;;;;;5060609;28;20614;-44
2022/04/01 13:16:46;;;;;;;10.83;2.03;;;12.00;32.20;;;;;;5066645;28;20251;-44
2022/04/01 13:19:26;;;;;;;4.37;1.50;;;11.70;32.50;;;;;;5066647;28;20194;-44
2022/04/01 13:21:56;;;;;;;6.63;1.40;;;11.30;32.90;;;;;;5065105;28;20191;-43
2022/04/01 13:24:25;;;;;;;4.13;1.57;;;11.10;33.00;;;;;;5067606;28;20224;-43
2022/04/01 13:26:52;;;;;;;3.20;1.30;;;10.90;33.40;;;;;;5068662;28;20292;-48